Time,TemperatureF,DewpointF,PressureIn,WindDirection,WindDirectionDegrees,WindSpeedMPH,WindSpeedGustMPH,Humidity,HourlyPrecipIn,Conditions,Clouds,dailyrainin,SoftwareType,DateUTC
2013-04-11 00:09:00,70.6,57.0,29.95,East,84,1.0,8.0,62,0.00,,,0.00,weatherlink.com 1.10,2013-04-11 04:09:00,
2013-04-11 00:24:00,70.3,57.0,29.95,ESE,109,2.0,7.0,62,0.00,,,0.00,weatherlink.com 1.10,2013-04-11 04:24:00,
2013-04-11 00:39:00,69.6,56.0,29.95,East,82,3.0,5.0,63,0.00,,,0.00,weatherlink.com 1.10,2013-04-11 04:39:00,
2013-04-11 00:54:00,69.0,56.0,29.95,SE,129,0.0,3.0,64,0.00,,,0.00,weatherlink.com 1.10,2013-04-11 04:54:00,
2013-04-11 01:09:00,68.1,57.0,29.95,ESE,113,0.0,0.0,67,0.00,,,0.00,weatherlink.com 1.10,2013-04-11 05:09:00,
2013-04-11 01:24:00,67.0,56.0,29.95,NE,55,0.0,2.0,68,0.00,,,0.00,weatherlink.com 1.10,2013-04-11 05:24:00,
2013-04-11 01:39:00,66.0,56.0,29.95,East,98,1.0,2.0,71,0.00,,,0.00,weatherlink.com 1.10,2013-04-11 05:39:00,
2013-04-11 01:54:00,65.4,56.0,29.95,SE,131,2.0,5.0,72,0.00,,,0.00,weatherlink.com 1.10,2013-04-11 05:54:00,
2013-04-11 02:09:00,66.0,56.0,29.95,SE,132,1.0,7.0,70,0.00,,,0.00,weatherlink.com 1.10,2013-04-11 06:09:00,
2013-04-11 02:24:00,65.9,56.0,29.95,East,98,5.0,9.0,70,0.00,,,0.00,weatherlink.com 1.10,2013-04-11 06:24:00,
2013-04-11 02:39:00,65.7,56.0,29.95,East,99,0.0,9.0,72,0.00,,,0.00,weatherlink.com 1.10,2013-04-11 06:39:00,
2013-04-11 02:54:00,65.4,57.0,29.95,NE,38,2.0,6.0,73,0.00,,,0.00,weatherlink.com 1.10,2013-04-11 06:54:00,
2013-04-11 03:09:00,64.9,57.0,29.94,ESE,116,0.0,5.0,75,0.00,,,0.00,weatherlink.com 1.10,2013-04-11 07:09:00,
2013-04-11 03:24:00,64.4,57.0,29.94,ESE,114,4.0,8.0,76,0.00,,,0.00,weatherlink.com 1.10,2013-04-11 07:24:00,
2013-04-11 03:39:00,64.0,57.0,29.93,ESE,103,0.0,5.0,78,0.00,,,0.00,weatherlink.com 1.10,2013-04-11 07:39:00,
2013-04-11 03:54:00,63.5,57.0,29.93,ENE,69,0.0,10.0,80,0.00,,,0.00,weatherlink.com 1.10,2013-04-11 07:54:00,
2013-04-11 04:09:00,63.1,58.0,29.93,ESE,123,2.0,5.0,82,0.00,,,0.00,weatherlink.com 1.10,2013-04-11 08:09:00,
2013-04-11 04:24:00,62.7,58.0,29.93,East,84,0.0,3.0,83,0.00,,,0.00,weatherlink.com 1.10,2013-04-11 08:24:00,
2013-04-11 04:39:00,62.3,57.0,29.93,East,96,0.0,5.0,84,0.00,,,0.00,weatherlink.com 1.10,2013-04-11 08:39:00,
2013-04-11 04:54:00,62.0,58.0,29.93,ESE,102,0.0,3.0,85,0.00,,,0.00,weatherlink.com 1.10,2013-04-11 08:54:00,
2013-04-11 05:09:00,61.7,58.0,29.93,East,98,1.0,3.0,86,0.00,,,0.00,weatherlink.com 1.10,2013-04-11 09:09:00,
2013-04-11 05:24:00,61.3,57.0,29.93,ENE,74,2.0,3.0,87,0.00,,,0.00,weatherlink.com 1.10,2013-04-11 09:24:00,
2013-04-11 05:39:00,61.1,58.0,29.94,East,91,0.0,3.0,89,0.00,,,0.00,weatherlink.com 1.10,2013-04-11 09:39:00,
2013-04-11 05:54:00,60.9,58.0,29.94,East,86,1.0,2.0,89,0.00,,,0.00,weatherlink.com 1.10,2013-04-11 09:54:00,
2013-04-11 06:09:00,60.6,58.0,29.95,East,86,0.0,0.0,90,0.00,,,0.00,weatherlink.com 1.10,2013-04-11 10:09:00,
2013-04-11 06:24:00,60.1,57.0,29.95,East,86,0.0,0.0,90,0.00,,,0.00,weatherlink.com 1.10,2013-04-11 10:24:00,
2013-04-11 06:39:00,59.5,57.0,29.95,East,86,0.0,0.0,91,0.00,,,0.00,weatherlink.com 1.10,2013-04-11 10:39:00,
2013-04-11 06:54:00,58.8,56.0,29.95,East,86,0.0,0.0,91,0.00,,,0.00,weatherlink.com 1.10,2013-04-11 10:54:00,
2013-04-11 07:09:00,58.4,56.0,29.95,East,86,0.0,0.0,93,0.00,,,0.00,weatherlink.com 1.10,2013-04-11 11:09:00,
2013-04-11 07:24:00,58.4,57.0,29.95,East,86,0.0,0.0,94,0.00,,,0.00,weatherlink.com 1.10,2013-04-11 11:24:00,
2013-04-11 07:39:00,58.8,57.0,29.96,East,86,0.0,0.0,95,0.00,,,0.00,weatherlink.com 1.10,2013-04-11 11:39:00,
2013-04-11 07:54:00,59.5,58.0,29.96,East,86,0.0,0.0,96,0.00,,,0.00,weatherlink.com 1.10,2013-04-11 11:54:00,
2013-04-11 08:10:00,60.8,59.0,29.96,ENE,65,1.0,3.0,94,0.00,,,0.00,weatherlink.com 1.10,2013-04-11 12:10:00,
2013-04-11 08:25:00,62.2,60.0,29.96,ESE,113,0.0,4.0,92,0.00,,,0.00,weatherlink.com 1.10,2013-04-11 12:25:00,
2013-04-11 08:40:00,63.1,60.0,29.96,East,101,3.0,6.0,90,0.00,,,0.00,weatherlink.com 1.10,2013-04-11 12:40:00,
2013-04-11 08:55:00,63.4,60.0,29.96,SSE,154,1.0,6.0,89,0.00,,,0.00,weatherlink.com 1.10,2013-04-11 12:55:00,
2013-04-11 09:10:00,63.6,60.0,29.97,ESE,105,0.0,5.0,89,0.00,,,0.00,weatherlink.com 1.10,2013-04-11 13:10:00,
2013-04-11 09:25:00,64.1,61.0,29.97,ENE,65,1.0,6.0,88,0.00,,,0.00,weatherlink.com 1.10,2013-04-11 13:25:00,
2013-04-11 09:40:00,64.6,61.0,29.96,SSE,148,1.0,5.0,89,0.00,,,0.00,weatherlink.com 1.10,2013-04-11 13:40:00,
2013-04-11 09:55:00,65.5,61.0,29.96,ENE,71,2.0,5.0,86,0.00,,,0.00,weatherlink.com 1.10,2013-04-11 13:55:00,
2013-04-11 10:10:00,66.9,62.0,29.95,East,96,1.0,6.0,84,0.00,,,0.00,weatherlink.com 1.10,2013-04-11 14:10:00,
2013-04-11 10:25:00,68.0,62.0,29.95,ENE,69,4.0,8.0,81,0.00,,,0.00,weatherlink.com 1.10,2013-04-11 14:25:00,
2013-04-11 10:40:00,68.1,62.0,29.96,East,80,5.0,9.0,80,0.00,,,0.00,weatherlink.com 1.10,2013-04-11 14:40:00,
2013-04-11 10:55:00,68.3,62.0,29.96,East,89,3.0,10.0,80,0.00,,,0.00,weatherlink.com 1.10,2013-04-11 14:55:00,
2013-04-11 11:10:00,70.3,62.0,29.95,ENE,67,5.0,10.0,76,0.00,,,0.00,weatherlink.com 1.10,2013-04-11 15:10:00,
2013-04-11 11:25:00,71.4,63.0,29.95,ENE,72,2.0,6.0,74,0.00,,,0.00,weatherlink.com 1.10,2013-04-11 15:25:00,
2013-04-11 11:40:00,71.7,61.0,29.94,ESE,123,3.0,11.0,70,0.00,,,0.00,weatherlink.com 1.10,2013-04-11 15:40:00,
2013-04-11 11:55:00,71.9,62.0,29.94,East,82,6.0,12.0,72,0.00,,,0.00,weatherlink.com 1.10,2013-04-11 15:55:00,
2013-04-11 12:10:00,72.7,62.0,29.93,SE,124,1.0,6.0,68,0.00,,,0.00,weatherlink.com 1.10,2013-04-11 16:10:00,
2013-04-11 12:25:00,73.3,62.0,29.93,SE,125,3.0,7.0,68,0.00,,,0.00,weatherlink.com 1.10,2013-04-11 16:25:00,
2013-04-11 12:40:00,74.6,63.0,29.92,SE,129,2.0,8.0,67,0.00,,,0.00,weatherlink.com 1.10,2013-04-11 16:40:00,
2013-04-11 12:55:00,76.4,63.0,29.91,East,82,2.0,11.0,64,0.00,,,0.00,weatherlink.com 1.10,2013-04-11 16:55:00,
2013-04-11 13:10:00,78.0,62.0,29.90,NNE,28,2.0,11.0,58,0.00,,,0.00,weatherlink.com 1.10,2013-04-11 17:10:00,
2013-04-11 13:25:00,77.0,60.0,29.89,NE,49,4.0,14.0,57,0.00,,,0.00,weatherlink.com 1.10,2013-04-11 17:25:00,
2013-04-11 13:40:00,77.9,61.0,29.88,ESE,120,4.0,14.0,56,0.00,,,0.00,weatherlink.com 1.10,2013-04-11 17:40:00,
2013-04-11 13:55:00,77.9,61.0,29.87,ESE,105,2.0,14.0,56,0.00,,,0.00,weatherlink.com 1.10,2013-04-11 17:55:00,
2013-04-11 14:10:00,77.5,60.0,29.87,ENE,68,2.0,10.0,55,0.00,,,0.00,weatherlink.com 1.10,2013-04-11 18:10:00,
2013-04-11 14:25:00,77.9,61.0,29.86,ESE,116,4.0,10.0,57,0.00,,,0.00,weatherlink.com 1.10,2013-04-11 18:25:00,
2013-04-11 14:41:00,77.9,61.0,29.86,East,90,6.0,10.0,56,0.00,,,0.00,weatherlink.com 1.10,2013-04-11 18:41:00,
2013-04-11 14:56:00,78.0,61.0,29.85,East,95,2.0,10.0,56,0.00,,,0.00,weatherlink.com 1.10,2013-04-11 18:56:00,
2013-04-11 15:11:00,78.9,63.0,29.84,East,84,2.0,12.0,58,0.00,,,0.00,weatherlink.com 1.10,2013-04-11 19:11:00,
2013-04-11 16:11:00,80.1,62.0,29.79,East,83,5.0,8.0,55,0.00,,,0.00,weatherlink.com 1.10,2013-04-11 20:11:00,
2013-04-11 16:26:00,80.6,62.0,29.78,East,98,1.0,10.0,53,0.00,,,0.00,weatherlink.com 1.10,2013-04-11 20:26:00,
2013-04-11 16:41:00,79.3,61.0,29.77,ESE,103,4.0,14.0,54,0.00,,,0.00,weatherlink.com 1.10,2013-04-11 20:41:00,
2013-04-11 16:56:00,78.4,61.0,29.76,ENE,74,3.0,10.0,55,0.00,,,0.00,weatherlink.com 1.10,2013-04-11 20:56:00,
2013-04-11 17:11:00,79.5,62.0,29.76,ENE,66,5.0,13.0,56,0.00,,,0.00,weatherlink.com 1.10,2013-04-11 21:11:00,
2013-04-11 17:26:00,78.7,62.0,29.77,NNE,24,7.0,11.0,56,0.00,,,0.00,weatherlink.com 1.10,2013-04-11 21:26:00,
2013-04-11 17:41:00,77.6,62.0,29.76,NNE,27,2.0,7.0,59,0.00,,,0.00,weatherlink.com 1.10,2013-04-11 21:41:00,
2013-04-11 17:56:00,77.4,63.0,29.77,NE,44,1.0,6.0,61,0.00,,,0.00,weatherlink.com 1.10,2013-04-11 21:56:00,
2013-04-11 18:11:00,77.1,63.0,29.76,ESE,103,2.0,8.0,61,0.00,,,0.00,weatherlink.com 1.10,2013-04-11 22:11:00,
2013-04-11 18:26:00,76.2,64.0,29.77,NE,47,5.0,8.0,66,0.00,,,0.00,weatherlink.com 1.10,2013-04-11 22:26:00,
2013-04-11 18:41:00,74.5,65.0,29.76,ENE,67,4.0,8.0,71,0.00,,,0.00,weatherlink.com 1.10,2013-04-11 22:41:00,
2013-04-11 19:26:00,72.7,65.0,29.75,East,79,0.0,5.0,76,0.00,,,0.00,weatherlink.com 1.10,2013-04-11 23:26:00,
2013-04-11 19:41:00,72.3,65.0,29.73,ENE,71,0.0,3.0,77,0.00,,,0.00,weatherlink.com 1.10,2013-04-11 23:41:00,
2013-04-11 19:56:00,71.7,65.0,29.73,East,101,1.0,4.0,79,0.00,,,0.00,weatherlink.com 1.10,2013-04-11 23:56:00,
2013-04-11 20:11:00,71.5,65.0,29.73,ENE,73,1.0,5.0,79,0.00,,,0.00,weatherlink.com 1.10,2013-04-12 00:11:00,
2013-04-11 20:26:00,71.4,65.0,29.73,ENE,58,1.0,3.0,81,0.00,,,0.00,weatherlink.com 1.10,2013-04-12 00:26:00,
2013-04-11 20:41:00,70.3,66.0,29.73,NE,55,1.0,8.0,86,0.01,,,0.01,weatherlink.com 1.10,2013-04-12 00:41:00,
2013-04-11 20:56:00,69.5,66.0,29.72,East,82,1.0,4.0,88,0.02,,,0.02,weatherlink.com 1.10,2013-04-12 00:56:00,
2013-04-11 21:11:00,69.1,66.0,29.72,East,88,1.0,5.0,89,0.02,,,0.02,weatherlink.com 1.10,2013-04-12 01:11:00,
2013-04-11 21:26:00,69.0,66.0,29.72,ESE,115,2.0,5.0,89,0.02,,,0.02,weatherlink.com 1.10,2013-04-12 01:26:00,
2013-04-11 21:41:00,68.9,66.0,29.72,NNE,22,4.0,4.0,89,0.01,,,0.02,weatherlink.com 1.10,2013-04-12 01:41:00,
2013-04-11 22:11:00,69.6,66.0,29.72,East,84,0.0,9.0,88,0.00,,,0.02,weatherlink.com 1.10,2013-04-12 02:11:00,
2013-04-11 22:26:00,69.5,66.0,29.72,NNE,26,1.0,7.0,88,0.00,,,0.02,weatherlink.com 1.10,2013-04-12 02:26:00,
2013-04-11 23:13:00,69.2,66.0,29.72,ESE,114,7.0,9.0,90,0.00,,,0.02,weatherlink.com 1.10,2013-04-12 03:13:00,